createdAt,value
2019-05-13T08:03:51.630Z,1.84
2019-05-13T08:08:52.306Z,2.45
2019-05-13T08:13:51.709Z,2.87
2019-05-13T08:18:52.288Z,2.21
2019-05-13T08:23:52.410Z,1.90
2019-05-13T08:28:57.989Z,2.62
2019-05-13T08:33:51.983Z,4.30
2019-05-13T08:38:51.897Z,2.36
2019-05-13T08:43:52.362Z,2.54
2019-05-13T08:48:51.783Z,2.35
2019-05-13T08:53:51.665Z,2.76
2019-05-13T08:58:52.119Z,3.34
2019-05-13T09:03:52.158Z,3.09
2019-05-13T09:08:53.797Z,2.16
2019-05-13T09:13:51.568Z,2.81
2019-05-13T09:18:52.043Z,2.72
2019-05-13T09:23:51.542Z,3.21
2019-05-13T09:28:52.008Z,3.10
2019-05-13T09:33:51.921Z,2.85
2019-05-13T09:38:52.318Z,3.02
2019-05-13T09:43:51.404Z,4.33
2019-05-13T09:48:51.624Z,3.07
2019-05-13T09:53:51.800Z,2.78
2019-05-13T09:58:51.341Z,4.16
2019-05-13T10:03:54.750Z,5.60
2019-05-13T10:08:52.657Z,3.46
2019-05-13T10:13:51.505Z,4.57
2019-05-13T10:18:49.427Z,2.96
2019-05-13T10:23:49.398Z,3.30
2019-05-13T10:28:49.363Z,3.42
2019-05-13T10:33:51.412Z,4.42
2019-05-13T10:38:51.946Z,6.21
2019-05-13T10:43:51.780Z,4.88
2019-05-13T10:48:49.196Z,4.78
2019-05-13T10:53:49.136Z,5.10
2019-05-13T10:58:49.107Z,3.82
2019-05-13T11:03:52.153Z,3.85
2019-05-13T11:08:48.998Z,4.31
2019-05-13T11:13:58.162Z,4.82
2019-05-13T11:18:51.879Z,4.33
2019-05-13T11:23:48.885Z,3.78
2019-05-13T11:28:51.903Z,3.85
2019-05-13T11:33:51.746Z,3.54
2019-05-13T11:38:48.805Z,5.47
2019-05-13T11:44:08.058Z,6.38
2019-05-13T11:48:51.891Z,3.08
2019-05-13T11:53:48.891Z,4.88
2019-05-13T11:58:48.646Z,3.93
2019-05-13T12:03:48.634Z,4.74
2019-05-13T12:08:52.038Z,6.37
2019-05-13T12:13:52.781Z,5.86
2019-05-13T12:18:48.638Z,5.19
2019-05-13T12:23:48.456Z,5.43
2019-05-13T12:28:48.442Z,5.84
2019-05-13T12:33:48.401Z,4.90
2019-05-13T12:38:48.365Z,5.16
2019-05-13T12:43:48.243Z,4.28
2019-05-13T12:48:48.202Z,3.75
2019-05-13T12:53:48.168Z,4.86
2019-05-13T12:58:48.161Z,5.42
2019-05-13T13:03:48.067Z,4.55
2019-05-13T13:08:49.997Z,3.62
2019-05-13T13:14:07.640Z,4.68
2019-05-13T13:18:51.925Z,4.17
2019-05-13T13:23:47.998Z,5.10
2019-05-13T13:28:47.924Z,7.06
2019-05-13T13:33:47.992Z,5.48
2019-05-13T13:38:55.708Z,4.24
2019-05-13T13:43:53.569Z,2.84
2019-05-13T13:48:47.800Z,2.98
2019-05-13T13:53:47.803Z,5.36
2019-05-13T13:58:47.629Z,4.36
2019-05-13T14:03:47.568Z,5.26
2019-05-13T14:08:48.551Z,4.61
2019-05-13T14:13:47.468Z,3.14
2019-05-13T14:18:47.428Z,3.00
2019-05-13T14:23:47.377Z,2.79
2019-05-13T14:28:47.443Z,2.71
2019-05-13T14:33:51.942Z,4.03
2019-05-13T14:38:47.253Z,4.09
2019-05-13T14:43:47.281Z,4.18
2019-05-13T14:48:47.213Z,4.40
2019-05-13T14:53:47.088Z,5.23
2019-05-13T14:58:47.048Z,6.38
2019-05-13T15:03:46.985Z,2.74
2019-05-13T15:08:46.986Z,3.57
2019-05-13T15:13:47.024Z,4.70
2019-05-13T15:18:46.883Z,5.50
2019-05-13T15:23:46.897Z,4.73
2019-05-13T15:28:51.884Z,5.01
2019-05-13T15:33:56.233Z,5.07
2019-05-13T15:38:46.794Z,5.85
2019-05-13T15:43:46.660Z,5.93
2019-05-13T15:48:55.748Z,4.82
2019-05-13T15:53:46.553Z,5.25
2019-05-13T15:58:46.598Z,6.06
2019-05-13T16:03:46.464Z,4.42
2019-05-13T16:08:46.647Z,4.06
2019-05-13T16:13:46.374Z,5.60
2019-05-13T16:18:46.575Z,5.05
2019-05-13T16:23:46.309Z,4.93
2019-05-13T16:28:46.268Z,4.05
2019-05-13T16:33:46.209Z,5.82
2019-05-13T16:38:46.208Z,6.71
2019-05-13T16:43:46.110Z,6.30
2019-05-13T16:48:46.043Z,4.34
2019-05-13T16:53:46.018Z,5.35
2019-05-13T16:58:45.958Z,5.15
2019-05-13T17:03:45.973Z,5.50
2019-05-13T17:08:45.941Z,4.31
2019-05-13T17:13:45.926Z,5.06
2019-05-13T17:18:45.820Z,4.06
2019-05-13T17:23:45.767Z,4.69
2019-05-13T17:28:46.077Z,4.73
2019-05-13T17:33:47.413Z,4.96
2019-05-13T17:38:45.895Z,5.15
2019-05-13T17:43:45.905Z,4.85
2019-05-13T17:48:46.562Z,4.17
2019-05-13T17:53:45.560Z,4.60
2019-05-13T17:58:45.467Z,3.87
2019-05-13T18:03:45.490Z,3.89
2019-05-13T18:08:45.356Z,3.23
2019-05-13T18:13:45.373Z,4.22
2019-05-13T18:18:47.442Z,3.69
2019-05-13T18:23:45.294Z,3.22
2019-05-13T18:28:45.173Z,2.58
2019-05-13T18:33:45.238Z,2.98
2019-05-13T18:38:45.071Z,2.32
2019-05-13T18:43:45.011Z,2.46
2019-05-13T18:48:58.242Z,1.87
2019-05-13T18:53:45.979Z,1.43
2019-05-13T18:58:44.894Z,1.76
2019-05-13T19:03:44.888Z,0.86
2019-05-13T19:08:44.827Z,2.03
2019-05-13T19:13:44.797Z,1.12
2019-05-13T19:18:45.697Z,0.56
2019-05-13T19:23:44.662Z,1.45
2019-05-13T19:28:44.585Z,1.59
2019-05-13T19:33:44.506Z,1.01
2019-05-13T19:38:44.436Z,1.02
2019-05-13T19:43:44.435Z,0.30
2019-05-13T19:48:44.318Z,0.61
2019-05-13T19:53:45.031Z,0.79
2019-05-13T19:58:44.201Z,0.27
2019-05-13T20:03:44.142Z,0.32
2019-05-13T20:08:44.182Z,0.07
2019-05-13T20:13:44.120Z,1.33
2019-05-13T20:18:43.984Z,0.74
2019-05-13T20:23:43.997Z,0.51
2019-05-13T20:28:43.876Z,0.84
2019-05-13T20:33:43.829Z,0.78
2019-05-13T20:38:43.767Z,1.14
2019-05-13T20:43:43.740Z,1.71
2019-05-13T20:48:43.666Z,1.54
2019-05-13T20:53:44.177Z,1.14
2019-05-13T20:58:43.572Z,0.65
2019-05-13T21:03:43.616Z,0.03
2019-05-13T21:08:43.563Z,0.18
2019-05-13T21:13:43.425Z,0.76
2019-05-13T21:18:43.367Z,0.43
2019-05-13T21:23:43.289Z,0.73
2019-05-13T21:28:43.245Z,0.94
2019-05-13T21:33:44.270Z,1.38
2019-05-13T21:38:43.147Z,1.25
2019-05-13T21:43:43.078Z,0.62
2019-05-13T21:48:43.037Z,2.36
2019-05-13T21:53:42.977Z,1.14
2019-05-13T21:58:42.936Z,0.90
2019-05-13T22:03:42.865Z,0.17
2019-05-13T22:08:42.815Z,0.46
2019-05-13T22:13:42.764Z,0.37
2019-05-13T22:18:42.763Z,0.75
2019-05-13T22:23:42.656Z,0.55
2019-05-13T22:28:42.594Z,0.51
2019-05-13T22:33:45.052Z,0.51
2019-05-13T22:38:42.786Z,0.40
2019-05-13T22:43:54.607Z,0.63
2019-05-13T22:48:43.460Z,0.87
2019-05-13T22:53:42.375Z,0.06
2019-05-13T22:58:42.296Z,0.13
2019-05-13T23:03:42.275Z,0.35
2019-05-13T23:08:42.201Z,1.03
2019-05-13T23:13:42.382Z,1.46
2019-05-13T23:18:42.259Z,1.82
2019-05-13T23:23:42.036Z,1.22
2019-05-13T23:28:41.990Z,0.95
2019-05-13T23:33:41.909Z,1.53
2019-05-13T23:38:41.880Z,1.71
2019-05-13T23:43:41.849Z,1.16
2019-05-13T23:48:41.761Z,0.61
2019-05-13T23:53:41.757Z,0.49
2019-05-13T23:58:41.710Z,0.34
